createdAt,value
2018-08-23T00:00:43.559Z,100804.77
2018-08-23T00:03:46.971Z,100805.07
2018-08-23T00:06:55.581Z,100803.14
2018-08-23T00:10:01.487Z,100802.44
2018-08-23T00:13:07.023Z,100801.50
2018-08-23T00:16:10.395Z,100798.41
2018-08-23T00:19:13.821Z,100797.41
2018-08-23T00:22:22.458Z,100796.87
2018-08-23T00:25:25.720Z,100790.41
2018-08-23T00:28:28.920Z,100787.27
2018-08-23T00:31:36.375Z,100784.23
2018-08-23T00:34:40.686Z,100792.25
2018-08-23T00:37:43.913Z,100783.30
2018-08-23T00:40:47.096Z,100783.73
2018-08-23T00:43:50.366Z,100785.09
2018-08-23T00:46:55.252Z,100783.16
2018-08-23T00:49:58.533Z,100779.70
2018-08-23T00:53:01.817Z,100775.78
2018-08-23T00:56:20.160Z,100780.22
2018-08-23T00:59:23.341Z,100772.88
2018-08-23T01:02:26.494Z,100781.07
2018-08-23T01:05:35.194Z,100771.91
2018-08-23T01:08:38.426Z,100770.66
2018-08-23T01:11:41.606Z,100772.39
2018-08-23T01:14:44.795Z,100774.58
2018-08-23T01:17:48.477Z,100768.58
2018-08-23T01:20:52.567Z,100770.83
2018-08-23T01:23:55.737Z,100769.89
2018-08-23T01:26:58.929Z,100771.88
2018-08-23T01:30:02.111Z,100763.36
2018-08-23T01:33:05.404Z,100765.03
2018-08-23T01:36:08.588Z,100760.70
2018-08-23T01:39:12.286Z,100758.26
2018-08-23T01:42:16.934Z,100750.80
2018-08-23T01:45:20.111Z,100748.30
2018-08-23T01:48:23.265Z,100746.61
2018-08-23T01:51:26.478Z,100743.70
2018-08-23T01:54:29.628Z,100739.35
2018-08-23T01:57:35.495Z,100741.91
2018-08-23T02:00:38.686Z,100739.53
2018-08-23T02:03:41.940Z,100744.48
2018-08-23T02:06:45.171Z,100738.89
2018-08-23T02:09:48.342Z,100733.89
2018-08-23T02:12:53.676Z,100730.36
2018-08-23T02:15:58.654Z,100723.41
2018-08-23T02:19:01.804Z,100728.22
2018-08-23T02:22:04.994Z,100720.80
2018-08-23T02:25:08.333Z,100725.80
2018-08-23T02:28:12.806Z,100721.98
2018-08-23T02:31:16.037Z,100722.16
2018-08-23T02:34:19.210Z,100720.89
2018-08-23T02:37:22.403Z,100717.98
2018-08-23T02:40:25.563Z,100694.50
2018-08-23T02:43:28.833Z,100715.20
2018-08-23T02:46:32.139Z,100719.08
2018-08-23T02:49:35.348Z,100712.88
2018-08-23T02:52:38.647Z,100713.08
2018-08-23T02:55:45.986Z,100712.19
2018-08-23T02:58:58.025Z,100718.13
2018-08-23T03:02:01.185Z,100713.83
2018-08-23T03:05:04.635Z,100715.80
2018-08-23T03:08:07.809Z,100710.26
2018-08-23T03:11:11.090Z,100715.05
2018-08-23T03:14:14.495Z,100714.71
2018-08-23T03:17:26.687Z,100715.26
2018-08-23T03:20:29.922Z,100713.14
2018-08-23T03:23:33.087Z,100714.37
2018-08-23T03:26:36.373Z,100711.55
2018-08-23T03:29:39.588Z,100708.66
2018-08-23T03:32:42.833Z,100709.83
2018-08-23T03:35:46.965Z,100709.99
2018-08-23T03:38:50.159Z,100705.58
2018-08-23T03:41:53.332Z,100701.85
2018-08-23T03:44:58.438Z,100701.44
2018-08-23T03:48:01.622Z,100699.62
2018-08-23T03:51:04.805Z,100703.66
2018-08-23T03:54:08.010Z,100704.07
2018-08-23T03:57:15.943Z,100701.63
2018-08-23T04:00:24.333Z,100697.19
2018-08-23T04:03:27.531Z,100703.66
2018-08-23T04:06:32.247Z,100710.55
2018-08-23T04:09:35.501Z,100706.08
2018-08-23T04:12:41.268Z,100695.91
2018-08-23T04:15:44.499Z,100703.79
2018-08-23T04:18:47.725Z,100700.37
2018-08-23T04:21:50.904Z,100708.33
2018-08-23T04:24:57.142Z,100706.83
2018-08-23T04:28:00.366Z,100710.15
2018-08-23T04:31:04.550Z,100708.95
2018-08-23T04:34:08.432Z,100715.13
2018-08-23T04:37:11.642Z,100710.59
2018-08-23T04:40:14.817Z,100712.42
2018-08-23T04:43:18.159Z,100706.45
2018-08-23T04:46:22.275Z,100704.26
2018-08-23T04:49:25.505Z,100699.33
2018-08-23T04:52:28.738Z,100700.27
2018-08-23T04:55:31.949Z,100702.16
2018-08-23T04:58:35.205Z,100702.72
2018-08-23T05:01:39.411Z,100698.66
2018-08-23T05:04:42.760Z,100693.07
2018-08-23T05:07:45.923Z,100698.66
2018-08-23T05:10:49.135Z,100690.95
2018-08-23T05:13:52.362Z,100684.34
2018-08-23T05:16:55.502Z,100686.75
2018-08-23T05:19:58.814Z,100684.05
2018-08-23T05:23:04.565Z,100681.57
2018-08-23T05:26:13.387Z,100677.42
2018-08-23T05:29:17.768Z,100679.95
2018-08-23T05:32:21.004Z,100674.42
2018-08-23T05:35:24.248Z,100679.56
2018-08-23T05:38:27.384Z,100673.83
2018-08-23T05:41:30.595Z,100662.62
2018-08-23T05:44:33.856Z,100661.05
2018-08-23T05:47:37.097Z,100663.97
2018-08-23T05:50:40.295Z,100666.05
2018-08-23T05:53:49.442Z,100659.45
2018-08-23T05:56:52.755Z,100658.18
2018-08-23T05:59:56.026Z,100655.59
2018-08-23T06:02:59.187Z,100653.28
2018-08-23T06:06:02.450Z,100658.70
2018-08-23T06:09:23.597Z,100652.57
2018-08-23T06:12:30.986Z,100657.08
2018-08-23T06:15:38.384Z,100644.19
2018-08-23T06:18:41.623Z,100643.36
2018-08-23T06:21:44.905Z,100640.75
2018-08-23T06:24:48.088Z,100638.31
2018-08-23T06:27:51.332Z,100637.06
2018-08-23T06:30:56.908Z,100635.08
2018-08-23T06:34:00.138Z,100638.00
2018-08-23T06:37:03.282Z,100629.80
2018-08-23T06:40:07.365Z,100628.84
2018-08-23T06:43:10.536Z,100621.13
2018-08-23T06:46:13.870Z,100625.79
2018-08-23T06:49:16.971Z,100628.36
2018-08-23T06:52:35.807Z,100629.45
2018-08-23T06:55:39.065Z,100620.16
2018-08-23T06:58:42.233Z,100619.02
2018-08-23T07:01:47.473Z,100620.43
2018-08-23T07:04:50.645Z,100629.15
2018-08-23T07:07:53.830Z,100624.94
2018-08-23T07:11:04.329Z,100619.19
2018-08-23T07:14:12.551Z,100617.53
2018-08-23T07:17:21.119Z,100619.58
2018-08-23T07:20:24.280Z,100617.56
2018-08-23T07:23:31.654Z,100621.81
2018-08-23T07:26:34.868Z,100611.77
2018-08-23T07:29:38.320Z,100619.00
2018-08-23T07:32:42.322Z,100608.94
2018-08-23T07:35:46.269Z,100608.67
2018-08-23T07:38:50.307Z,100613.78
2018-08-23T07:41:53.429Z,100614.99
2018-08-23T07:44:57.264Z,100620.60
2018-08-23T07:48:00.527Z,100623.11
2018-08-23T07:51:10.928Z,100625.17
2018-08-23T07:54:18.094Z,100620.78
2018-08-23T07:57:21.483Z,100619.12
2018-08-23T08:00:43.466Z,100619.98
2018-08-23T08:03:46.840Z,100618.27
2018-08-23T08:06:50.145Z,100615.52
2018-08-23T08:09:53.363Z,100613.37
2018-08-23T08:12:56.674Z,100618.70
2018-08-23T08:16:10.395Z,100615.48
2018-08-23T08:19:13.662Z,100613.44
2018-08-23T08:22:16.859Z,100618.45
2018-08-23T08:25:20.297Z,100613.63
2018-08-23T08:28:24.934Z,100609.77
2018-08-23T08:31:29.277Z,100610.63
2018-08-23T08:34:34.592Z,100606.69
2018-08-23T08:37:55.116Z,100601.61
2018-08-23T08:41:01.300Z,100605.05
2018-08-23T08:44:09.026Z,100597.52
2018-08-23T08:47:13.568Z,100597.94
2018-08-23T08:50:17.148Z,100593.83
2018-08-23T08:53:20.430Z,100586.43
2018-08-23T08:56:25.239Z,100587.07
2018-08-23T08:59:29.618Z,100584.83
2018-08-23T09:02:33.159Z,100569.23
2018-08-23T09:05:36.388Z,100575.28
2018-08-23T09:08:39.922Z,100568.69
2018-08-23T09:11:43.136Z,100559.75
2018-08-23T09:14:46.404Z,100558.81
2018-08-23T09:17:50.219Z,100554.98
2018-08-23T09:20:56.653Z,100557.92
2018-08-23T09:24:12.970Z,100548.59
2018-08-23T09:27:18.676Z,100544.59
2018-08-23T09:30:26.780Z,100539.32
2018-08-23T09:33:30.056Z,100523.96
2018-08-23T09:36:33.310Z,100532.87
2018-08-23T09:39:36.526Z,100530.57
2018-08-23T09:42:39.730Z,100520.50
2018-08-23T09:45:42.910Z,100517.39
2018-08-23T09:48:46.050Z,100509.91
2018-08-23T09:51:49.363Z,100517.89
2018-08-23T09:54:53.953Z,100509.06
2018-08-23T09:57:57.979Z,100507.23
2018-08-23T10:01:06.632Z,100495.84
2018-08-23T10:04:15.845Z,100487.39
2018-08-23T10:07:24.850Z,100491.78
2018-08-23T10:10:33.467Z,100490.16
2018-08-23T10:13:42.807Z,100484.65
2018-08-23T10:16:51.440Z,100474.95
2018-08-23T10:20:01.998Z,100479.46
2018-08-23T10:23:11.355Z,100470.17
2018-08-23T10:26:29.786Z,100464.31
2018-08-23T10:29:33.116Z,100460.41
2018-08-23T10:32:36.508Z,100458.88
2018-08-23T10:35:46.487Z,100457.85
2018-08-23T10:38:49.787Z,100453.31
2018-08-23T10:41:53.164Z,100443.16
2018-08-23T10:44:56.432Z,100447.09
2018-08-23T10:48:05.093Z,100442.83
2018-08-23T10:51:08.424Z,100426.87
2018-08-23T10:54:12.216Z,100430.98
2018-08-23T10:57:18.568Z,100432.16
2018-08-23T11:00:21.839Z,100424.30
2018-08-23T11:03:25.134Z,100413.72
2018-08-23T11:06:28.441Z,100418.51
2018-08-23T11:09:37.155Z,100424.86
2018-08-23T11:12:45.719Z,100416.91
2018-08-23T11:15:48.975Z,100412.00
2018-08-23T11:18:57.679Z,100411.42
2018-08-23T11:22:00.967Z,100405.67
2018-08-23T11:25:04.230Z,100403.00
2018-08-23T11:28:13.018Z,100397.41
2018-08-23T11:31:21.653Z,100393.42
2018-08-23T11:34:25.155Z,100387.56
2018-08-23T11:37:29.226Z,100391.75
2018-08-23T11:40:33.750Z,100380.71
2018-08-23T11:43:37.013Z,100374.19
2018-08-23T11:46:40.291Z,100369.63
2018-08-23T11:49:43.666Z,100359.97
2018-08-23T11:52:47.109Z,100370.94
2018-08-23T11:55:50.513Z,100359.03
2018-08-23T11:58:53.878Z,100354.87
2018-08-23T12:01:57.285Z,100346.90
2018-08-23T12:05:00.522Z,100344.91
2018-08-23T12:08:03.878Z,100355.63
2018-08-23T12:11:07.374Z,100343.84
2018-08-23T12:14:10.770Z,100330.78
2018-08-23T12:17:14.150Z,100327.17
2018-08-23T12:20:17.518Z,100318.77
2018-08-23T12:23:20.852Z,100312.29
2018-08-23T12:26:24.271Z,100314.32
2018-08-23T12:29:27.714Z,100303.53
2018-08-23T12:32:31.029Z,100302.11
2018-08-23T12:35:34.530Z,100302.45
2018-08-23T12:38:43.303Z,100304.28
2018-08-23T12:41:51.968Z,100286.05
2018-08-23T12:44:56.303Z,100294.06
2018-08-23T12:47:59.650Z,100286.95
2018-08-23T12:51:02.934Z,100281.61
2018-08-23T12:54:06.344Z,100276.04
2018-08-23T12:57:09.714Z,100268.11
2018-08-23T13:00:13.002Z,100260.16
2018-08-23T13:03:16.442Z,100261.30
2018-08-23T13:06:20.056Z,100250.87
2018-08-23T13:09:23.232Z,100254.53
2018-08-23T13:12:26.512Z,100245.11
2018-08-23T13:15:29.704Z,100247.83
2018-08-23T13:18:32.896Z,100250.29
2018-08-23T13:21:36.217Z,100236.44
2018-08-23T13:24:44.919Z,100232.55
2018-08-23T13:27:48.297Z,100229.09
2018-08-23T13:30:51.681Z,100231.79
2018-08-23T13:33:55.064Z,100215.83
2018-08-23T13:36:58.398Z,100215.27
2018-08-23T13:40:01.966Z,100213.22
2018-08-23T13:43:05.149Z,100210.95
2018-08-23T13:46:08.554Z,100199.37
2018-08-23T13:49:11.790Z,100205.16
2018-08-23T13:52:15.471Z,100204.31
2018-08-23T13:55:18.790Z,100199.73
2018-08-23T13:58:22.158Z,100191.78
2018-08-23T14:01:27.926Z,100191.89
2018-08-23T14:04:31.223Z,100193.25
2018-08-23T14:07:34.740Z,100180.22
2018-08-23T14:10:38.013Z,100182.30
2018-08-23T14:13:41.342Z,100183.74
2018-08-23T14:16:44.691Z,100177.84
2018-08-23T14:19:47.963Z,100169.04
2018-08-23T14:22:51.276Z,100167.09
2018-08-23T14:25:54.681Z,100162.48
2018-08-23T14:28:57.980Z,100150.68
2018-08-23T14:32:01.453Z,100151.72
2018-08-23T14:35:04.861Z,100151.64
2018-08-23T14:38:08.701Z,100146.64
2018-08-23T14:41:12.033Z,100136.55
2018-08-23T14:44:15.485Z,100133.11
2018-08-23T14:47:24.030Z,100133.39
2018-08-23T14:50:27.543Z,100126.98
2018-08-23T14:53:31.551Z,100116.79
2018-08-23T14:56:41.112Z,100121.25
2018-08-23T14:59:45.055Z,100112.84
2018-08-23T15:02:48.606Z,100113.54
2018-08-23T15:05:52.107Z,100106.58
2018-08-23T15:08:55.432Z,100111.52
2018-08-23T15:12:00.353Z,100103.62
2018-08-23T15:15:05.801Z,100106.34
2018-08-23T15:18:09.317Z,100100.20
2018-08-23T15:21:12.815Z,100100.36
2018-08-23T15:24:16.666Z,100099.36
2018-08-23T15:27:20.782Z,100095.33
2018-08-23T15:30:25.297Z,100097.27
2018-08-23T15:33:38.010Z,100098.28
2018-08-23T15:36:41.460Z,100091.48
2018-08-23T15:39:44.857Z,100091.23
2018-08-23T15:42:48.978Z,100091.94
2018-08-23T15:45:52.486Z,100084.25
2018-08-23T15:48:55.901Z,100080.72
2018-08-23T15:52:03.002Z,100082.86
2018-08-23T15:55:06.677Z,100079.37
2018-08-23T15:58:09.836Z,100080.31
2018-08-23T16:01:13.141Z,100076.89
2018-08-23T16:04:17.550Z,100070.93
2018-08-23T16:07:21.509Z,100071.85
2018-08-23T16:10:26.871Z,100072.56
2018-08-23T16:13:31.383Z,100065.98
2018-08-23T16:16:40.280Z,100058.98
2018-08-23T16:19:49.375Z,100059.33
2018-08-23T16:22:52.935Z,100055.38
2018-08-23T16:25:56.715Z,100055.84
2018-08-23T16:29:00.199Z,100051.70
2018-08-23T16:32:03.953Z,100051.53
2018-08-23T16:35:07.787Z,100059.97
2018-08-23T16:38:11.435Z,100056.93
2018-08-23T16:41:15.066Z,100048.26
2018-08-23T16:44:18.502Z,100054.75
2018-08-23T16:47:22.558Z,100056.53
2018-08-23T16:50:26.646Z,100053.78
2018-08-23T16:53:30.360Z,100050.70
2018-08-23T16:56:40.665Z,100049.72
2018-08-23T16:59:44.188Z,100049.66
2018-08-23T17:02:47.920Z,100045.03
2018-08-23T17:05:52.073Z,100045.80
2018-08-23T17:08:56.342Z,100046.87
2018-08-23T17:12:06.359Z,100042.09
2018-08-23T17:15:16.607Z,100040.67
2018-08-23T17:18:22.655Z,100035.81
2018-08-23T17:21:34.933Z,100044.81
2018-08-23T17:24:42.237Z,100053.16
2018-08-23T17:27:46.735Z,100045.16
2018-08-23T17:30:53.059Z,100051.92
2018-08-23T17:34:03.508Z,100050.69
2018-08-23T17:37:11.511Z,100056.57
2018-08-23T17:40:16.688Z,100062.32
2018-08-23T17:43:24.252Z,100064.98
2018-08-23T18:01:32.839Z,100075.90
2018-08-23T18:04:36.768Z,100106.61
2018-08-23T18:07:40.312Z,100161.64
2018-08-23T18:10:44.740Z,100211.73
2018-08-23T18:13:48.667Z,100218.52
2018-08-23T18:16:59.168Z,100262.57
2018-08-23T18:20:03.810Z,100261.52
2018-08-23T18:23:08.496Z,100269.41
2018-08-23T18:26:12.559Z,100263.94
2018-08-23T18:29:16.851Z,100265.98
2018-08-23T18:32:20.868Z,100257.60
2018-08-23T18:35:25.200Z,100263.64
2018-08-23T18:38:29.399Z,100254.83
2018-08-23T18:41:34.155Z,100262.32
2018-08-23T18:44:40.355Z,100255.72
2018-08-23T18:47:50.864Z,100248.43
2018-08-23T18:50:58.110Z,100250.17
2018-08-23T18:54:02.380Z,100253.97
2018-08-23T18:57:06.744Z,100249.64
2018-08-23T19:00:10.638Z,100252.20
2018-08-23T19:03:15.034Z,100253.63
2018-08-23T19:06:19.086Z,100257.30
2018-08-23T19:09:23.180Z,100265.28
2018-08-23T19:12:26.817Z,100266.39
2018-08-23T19:15:36.494Z,100257.13
2018-08-23T19:18:40.588Z,100257.08
2018-08-23T19:21:44.703Z,100244.22
2018-08-23T19:24:48.634Z,100243.36
2018-08-23T19:27:52.742Z,100243.67
2018-08-23T19:30:56.587Z,100248.90
2018-08-23T19:34:00.252Z,100254.73
2018-08-23T19:37:04.308Z,100248.93
2018-08-23T19:40:08.740Z,100232.76
2018-08-23T19:46:23.588Z,100234.16
2018-08-23T19:49:32.603Z,100230.60
2018-08-23T19:52:36.443Z,100224.57
2018-08-23T19:55:40.605Z,100213.48
2018-08-23T19:58:44.366Z,100209.37
2018-08-23T20:01:48.438Z,100196.64
2018-08-23T20:04:57.236Z,100190.17
2018-08-23T20:08:02.857Z,100191.20
2018-08-23T20:11:06.966Z,100188.77
2018-08-23T20:14:10.883Z,100182.44
2018-08-23T20:17:15.607Z,100181.92
2018-08-23T20:20:19.624Z,100184.94
2018-08-23T20:23:23.435Z,100167.42
2018-08-23T20:26:27.197Z,100172.35
2018-08-23T20:29:30.937Z,100178.77
2018-08-23T20:32:34.586Z,100171.63
2018-08-23T20:35:38.427Z,100161.97
2018-08-23T20:38:42.104Z,100162.80
2018-08-23T20:41:46.650Z,100157.09
2018-08-23T20:45:05.209Z,100161.10
2018-08-23T20:48:34.245Z,100163.41
2018-08-23T20:51:39.179Z,100158.88
2018-08-23T20:54:47.429Z,100155.48
2018-08-23T20:58:29.673Z,100153.52
2018-08-23T21:05:33.479Z,100160.27
2018-08-23T21:08:44.402Z,100160.45
2018-08-23T21:11:48.134Z,100160.39
2018-08-23T21:14:51.840Z,100159.22
2018-08-23T21:30:31.979Z,100161.12
2018-08-23T21:33:35.770Z,100174.16
2018-08-23T21:36:39.275Z,100169.52
2018-08-23T21:39:42.768Z,100174.98
2018-08-23T21:42:46.185Z,100177.22
2018-08-23T21:45:49.587Z,100179.56
2018-08-23T21:48:53.562Z,100181.30
2018-08-23T21:51:56.995Z,100179.83
2018-08-23T21:55:00.316Z,100182.02
2018-08-23T21:58:03.774Z,100176.79
2018-08-23T22:01:08.653Z,100170.80
2018-08-23T22:04:12.071Z,100169.16
2018-08-23T22:07:15.774Z,100165.30
2018-08-23T22:10:19.137Z,100160.91
2018-08-23T22:13:22.570Z,100162.09
2018-08-23T22:16:26.218Z,100158.23
2018-08-23T22:19:30.314Z,100152.37
2018-08-23T22:22:33.744Z,100154.03
2018-08-23T22:25:37.146Z,100148.98
2018-08-23T22:28:40.507Z,100147.61
2018-08-23T22:31:44.566Z,100150.19
2018-08-23T22:34:48.057Z,100145.39
2018-08-23T22:37:51.369Z,100138.97
2018-08-23T22:40:55.980Z,100138.23
2018-08-23T22:43:59.362Z,100129.94
2018-08-23T22:47:02.814Z,100135.73
2018-08-23T22:50:07.473Z,100130.41
2018-08-23T22:53:10.775Z,100127.88
2018-08-23T22:56:14.101Z,100130.06
2018-08-23T22:59:17.426Z,100132.30
2018-08-23T23:02:25.960Z,100132.77
2018-08-23T23:05:29.265Z,100125.49
2018-08-23T23:08:33.249Z,100129.39
2018-08-23T23:11:36.809Z,100127.08
2018-08-23T23:14:40.129Z,100130.77
2018-08-23T23:17:44.395Z,100129.27
2018-08-23T23:20:48.146Z,100127.80
2018-08-23T23:23:51.405Z,100126.45
2018-08-23T23:26:55.717Z,100128.86
2018-08-23T23:29:59.219Z,100129.81
2018-08-23T23:33:02.887Z,100123.84
2018-08-23T23:36:06.141Z,100116.97
2018-08-23T23:39:09.510Z,100114.65
2018-08-23T23:42:12.736Z,100120.73
2018-08-23T23:45:16.000Z,100120.60
2018-08-23T23:48:19.297Z,100113.55
2018-08-23T23:51:22.635Z,100117.63
2018-08-23T23:54:25.885Z,100116.33
2018-08-23T23:57:29.400Z,100111.11
